createdAt,value
2018-06-15T00:02:37.704Z,16.80
2018-06-15T00:05:06.213Z,16.70
2018-06-15T00:07:34.768Z,16.70
2018-06-15T00:10:03.257Z,16.70
2018-06-15T00:12:31.579Z,16.70
2018-06-15T00:15:00.025Z,16.70
2018-06-15T00:17:28.407Z,16.70
2018-06-15T00:19:56.928Z,16.70
2018-06-15T00:22:25.308Z,16.70
2018-06-15T00:24:53.784Z,16.60
2018-06-15T00:27:22.192Z,16.60
2018-06-15T00:29:50.608Z,16.50
2018-06-15T00:32:19.109Z,16.50
2018-06-15T00:34:47.617Z,16.50
2018-06-15T00:37:17.118Z,16.50
2018-06-15T00:39:45.497Z,16.50
2018-06-15T00:42:13.988Z,16.60
2018-06-15T00:44:42.409Z,16.50
2018-06-15T00:47:10.790Z,16.40
2018-06-15T00:49:39.256Z,16.40
2018-06-15T00:52:07.650Z,16.40
2018-06-15T00:54:36.204Z,16.40
2018-06-15T00:57:15.917Z,16.40
2018-06-15T00:59:44.276Z,16.40
2018-06-15T01:04:40.785Z,16.30
2018-06-15T01:07:09.260Z,16.20
2018-06-15T01:09:37.868Z,16.20
2018-06-15T01:12:06.481Z,16.20
2018-06-15T01:14:35.188Z,16.10
2018-06-15T01:17:03.707Z,16.10
2018-06-15T01:19:32.200Z,16.00
2018-06-15T01:22:00.746Z,16.00
2018-06-15T01:24:29.324Z,16.00
2018-06-15T01:26:57.828Z,16.00
2018-06-15T01:29:26.248Z,15.90
2018-06-15T01:31:54.729Z,15.90
2018-06-15T01:34:24.224Z,15.80
2018-06-15T01:36:52.724Z,15.80
2018-06-15T01:39:21.292Z,15.70
2018-06-15T01:41:49.737Z,15.70
2018-06-15T01:44:18.116Z,15.70
2018-06-15T01:46:46.552Z,15.60
2018-06-15T01:49:14.918Z,15.60
2018-06-15T01:51:43.337Z,15.50
2018-06-15T01:54:11.751Z,15.50
2018-06-15T01:56:40.289Z,15.40
2018-06-15T01:59:08.792Z,15.40
2018-06-15T02:01:37.304Z,15.40
2018-06-15T02:04:05.721Z,15.40
2018-06-15T02:06:34.227Z,15.40
2018-06-15T02:09:03.120Z,15.40
2018-06-15T02:11:31.528Z,15.40
2018-06-15T02:13:59.980Z,15.40
2018-06-15T02:16:28.438Z,15.30
2018-06-15T02:18:56.919Z,15.30
2018-06-15T02:21:25.325Z,15.20
2018-06-15T02:23:53.761Z,15.20
2018-06-15T02:26:22.225Z,15.20
2018-06-15T02:28:50.660Z,15.20
2018-06-15T02:31:19.171Z,15.10
2018-06-15T02:33:48.475Z,15.10
2018-06-15T02:36:16.781Z,15.10
2018-06-15T02:38:45.051Z,15.10
2018-06-15T02:41:13.304Z,15.00
2018-06-15T02:43:41.687Z,15.00
2018-06-15T02:46:10.083Z,15.00
2018-06-15T02:48:38.525Z,14.90
2018-06-15T02:51:07.059Z,14.90
2018-06-15T02:53:35.517Z,14.90
2018-06-15T02:56:04.043Z,14.80
2018-06-15T02:58:32.417Z,14.80
2018-06-15T03:01:00.837Z,14.80
2018-06-15T03:03:29.283Z,14.70
2018-06-15T03:05:58.938Z,14.70
2018-06-15T03:08:27.383Z,14.70
2018-06-15T03:10:55.800Z,14.60
2018-06-15T03:13:24.296Z,14.60
2018-06-15T03:15:52.873Z,14.50
2018-06-15T03:18:21.305Z,14.50
2018-06-15T03:20:49.860Z,14.40
2018-06-15T03:23:18.384Z,14.40
2018-06-15T03:25:47.332Z,14.40
2018-06-15T03:28:15.916Z,14.40
2018-06-15T03:30:44.433Z,14.30
2018-06-15T03:33:12.905Z,14.30
2018-06-15T03:35:41.328Z,14.30
2018-06-15T03:38:10.880Z,14.30
2018-06-15T03:40:39.366Z,14.20
2018-06-15T03:43:07.949Z,14.20
2018-06-15T03:45:36.368Z,14.20
2018-06-15T03:48:04.797Z,14.20
2018-06-15T03:50:33.212Z,14.20
2018-06-15T03:53:01.702Z,14.20
2018-06-15T03:55:30.197Z,14.10
2018-06-15T03:57:58.629Z,14.10
2018-06-15T04:00:27.361Z,14.10
2018-06-15T04:02:55.908Z,14.20
2018-06-15T04:05:24.352Z,14.20
2018-06-15T04:07:52.864Z,14.10
2018-06-15T04:12:49.280Z,14.20
2018-06-15T04:15:17.704Z,14.20
2018-06-15T04:17:50.421Z,14.20
2018-06-15T04:20:19.112Z,14.20
2018-06-15T04:22:47.553Z,14.30
2018-06-15T04:25:15.989Z,14.30
2018-06-15T04:27:44.432Z,14.30
2018-06-15T04:30:12.828Z,14.40
2018-06-15T04:32:41.365Z,14.40
2018-06-15T04:35:09.842Z,14.40
2018-06-15T04:37:38.406Z,14.50
2018-06-15T04:40:06.848Z,14.50
2018-06-15T04:42:35.366Z,14.60
2018-06-15T04:45:03.976Z,14.70
2018-06-15T04:47:32.667Z,14.70
2018-06-15T04:50:01.121Z,14.80
2018-06-15T04:55:08.828Z,14.90
2018-06-15T04:57:37.357Z,15.00
2018-06-15T05:00:06.141Z,15.00
2018-06-15T05:02:34.601Z,15.00
2018-06-15T05:05:03.097Z,15.10
2018-06-15T05:07:31.525Z,15.10
2018-06-15T05:10:00.076Z,15.10
2018-06-15T05:12:29.045Z,15.20
2018-06-15T05:14:59.612Z,15.40
2018-06-15T05:17:28.129Z,15.70
2018-06-15T05:19:57.696Z,15.80
2018-06-15T05:22:28.204Z,15.80
2018-06-15T05:24:56.909Z,16.00
2018-06-15T05:27:25.404Z,16.00
2018-06-15T05:29:53.827Z,16.20
2018-06-15T05:32:22.257Z,16.30
2018-06-15T05:34:50.717Z,16.40
2018-06-15T05:37:19.278Z,16.70
2018-06-15T05:39:47.835Z,17.00
2018-06-15T05:42:16.228Z,17.30
2018-06-15T05:44:44.673Z,17.60
2018-06-15T05:47:13.264Z,17.60
2018-06-15T05:49:41.733Z,17.70
2018-06-15T05:52:10.172Z,17.70
2018-06-15T05:54:38.695Z,17.80
2018-06-15T05:57:08.173Z,17.90
2018-06-15T05:59:36.769Z,18.00
2018-06-15T06:02:05.296Z,18.00
2018-06-15T06:04:33.773Z,18.00
2018-06-15T06:07:02.228Z,18.30
2018-06-15T06:09:30.814Z,18.40
2018-06-15T06:11:59.364Z,18.40
2018-06-15T06:14:27.788Z,18.30
2018-06-15T06:16:56.308Z,18.40
2018-06-15T06:19:24.700Z,18.60
2018-06-15T06:21:53.336Z,18.80
2018-06-15T06:24:21.884Z,19.10
2018-06-15T06:26:50.366Z,19.20
2018-06-15T06:29:18.736Z,19.00
2018-06-15T06:31:47.161Z,19.00
2018-06-15T06:34:15.591Z,19.00
2018-06-15T06:36:44.268Z,19.10
2018-06-15T06:39:13.288Z,19.30
2018-06-15T06:41:41.752Z,19.40
2018-06-15T06:44:11.124Z,19.50
2018-06-15T06:46:43.021Z,19.60
2018-06-15T06:49:12.492Z,20.00
2018-06-15T06:51:40.936Z,20.50
2018-06-15T06:54:09.396Z,20.90
2018-06-15T06:56:37.884Z,20.90
2018-06-15T06:59:06.334Z,20.70
2018-06-15T07:01:34.884Z,20.60
2018-06-15T07:04:03.340Z,20.70
2018-06-15T07:06:32.809Z,20.90
2018-06-15T07:09:01.276Z,21.10
2018-06-15T07:11:29.769Z,21.40
2018-06-15T07:13:58.310Z,21.60
2018-06-15T07:16:26.953Z,21.60
2018-06-15T07:18:55.409Z,22.00
2018-06-15T07:21:23.786Z,22.10
2018-06-15T07:23:52.254Z,22.10
2018-06-15T07:26:20.662Z,22.10
2018-06-15T07:28:50.228Z,22.40
2018-06-15T07:31:18.677Z,22.90
2018-06-15T07:33:47.068Z,22.90
2018-06-15T07:36:15.728Z,23.30
2018-06-15T07:38:45.321Z,24.30
2018-06-15T07:41:13.855Z,24.60
2018-06-15T07:43:42.460Z,25.00
2018-06-15T07:46:10.919Z,25.40
2018-06-15T07:48:39.277Z,25.80
2018-06-15T07:51:07.813Z,26.10
2018-06-15T07:53:36.161Z,26.20
2018-06-15T07:56:08.389Z,26.70
2018-06-15T07:58:37.296Z,26.70
2018-06-15T08:01:09.340Z,26.90
2018-06-15T08:03:37.761Z,27.30
2018-06-15T08:06:06.153Z,27.70
2018-06-15T08:08:34.653Z,27.90
2018-06-15T08:11:03.041Z,29.00
2018-06-15T08:13:32.556Z,29.10
2018-06-15T08:16:01.173Z,28.50
2018-06-15T08:18:29.549Z,28.20
2018-06-15T08:20:57.992Z,28.50
2018-06-15T08:23:26.439Z,28.90
2018-06-15T08:25:54.802Z,29.80
2018-06-15T08:28:24.576Z,30.10
2018-06-15T08:30:53.193Z,29.70
2018-06-15T08:33:21.613Z,29.50
2018-06-15T08:35:50.108Z,29.60
2018-06-15T08:38:19.567Z,29.80
2018-06-15T08:40:50.040Z,30.00
2018-06-15T08:43:18.827Z,29.90
2018-06-15T08:45:48.182Z,30.50
2018-06-15T08:48:16.591Z,30.80
2018-06-15T08:50:45.096Z,31.10
2018-06-15T08:53:13.680Z,31.10
2018-06-15T08:55:42.163Z,30.70
2018-06-15T08:58:10.624Z,30.50
2018-06-15T09:00:49.437Z,30.70
2018-06-15T09:03:17.907Z,30.80
2018-06-15T09:05:46.348Z,31.30
2018-06-15T09:08:14.789Z,31.80
2018-06-15T09:10:43.393Z,31.80
2018-06-15T09:13:11.848Z,32.90
2018-06-15T09:15:40.435Z,33.20
2018-06-15T09:18:09.967Z,33.40
2018-06-15T09:20:38.412Z,33.20
2018-06-15T09:23:10.457Z,33.30
2018-06-15T09:25:38.820Z,34.20
2018-06-15T09:28:07.536Z,34.20
2018-06-15T09:30:36.265Z,33.90
2018-06-15T09:33:12.456Z,34.30
2018-06-15T09:35:40.975Z,35.30
2018-06-15T09:38:09.508Z,36.40
2018-06-15T09:40:37.862Z,36.90
2018-06-15T09:43:06.692Z,36.90
2018-06-15T09:45:35.368Z,37.40
2018-06-15T09:48:03.972Z,36.80
2018-06-15T09:50:32.509Z,35.30
2018-06-15T09:53:00.906Z,34.20
2018-06-15T09:57:57.205Z,34.10
2018-06-15T10:00:31.947Z,34.00
2018-06-15T10:03:00.354Z,33.90
2018-06-15T10:05:28.704Z,34.20
2018-06-15T10:08:00.900Z,34.50
2018-06-15T10:10:29.301Z,35.40
2018-06-15T10:13:00.844Z,35.70
2018-06-15T10:15:29.208Z,35.50
2018-06-15T10:17:57.592Z,36.10
2018-06-15T10:20:26.124Z,35.90
2018-06-15T10:22:55.591Z,35.60
2018-06-15T10:25:24.097Z,35.50
2018-06-15T10:27:52.592Z,35.10
2018-06-15T10:30:23.800Z,34.90
2018-06-15T10:32:52.358Z,35.30
2018-06-15T10:35:21.033Z,35.70
2018-06-15T10:37:49.473Z,35.90
2018-06-15T10:40:18.968Z,35.90
2018-06-15T10:42:47.465Z,35.90
2018-06-15T10:45:15.968Z,36.40
2018-06-15T10:50:12.568Z,35.90
2018-06-15T10:52:40.996Z,36.10
2018-06-15T10:55:09.444Z,36.20
2018-06-15T10:57:37.900Z,36.10
2018-06-15T11:00:08.529Z,36.30
2018-06-15T11:02:38.821Z,37.40
2018-06-15T11:05:07.564Z,37.40
2018-06-15T11:07:36.032Z,37.60
2018-06-15T11:10:04.511Z,37.40
2018-06-15T11:12:33.844Z,37.70
2018-06-15T11:15:02.713Z,38.40
2018-06-15T11:17:33.447Z,38.70
2018-06-15T11:20:01.851Z,38.20
2018-06-15T11:22:34.836Z,37.80
2018-06-15T11:25:03.185Z,37.50
2018-06-15T11:27:31.580Z,37.50
2018-06-15T11:30:00.402Z,37.60
2018-06-15T11:32:28.770Z,38.00
2018-06-15T11:34:57.127Z,38.10
2018-06-15T11:37:27.009Z,37.90
2018-06-15T11:39:55.476Z,37.80
2018-06-15T11:42:23.916Z,37.60
2018-06-15T11:44:52.338Z,37.20
2018-06-15T11:47:20.575Z,37.40
2018-06-15T11:49:49.942Z,37.30
2018-06-15T11:52:18.711Z,36.70
2018-06-15T11:54:46.994Z,36.40
2018-06-15T11:57:15.256Z,36.10
2018-06-15T11:59:43.503Z,35.90
2018-06-15T12:02:11.836Z,35.70
2018-06-15T12:04:40.336Z,35.50
2018-06-15T12:07:08.743Z,35.70
2018-06-15T12:09:37.264Z,36.30
2018-06-15T12:12:05.749Z,36.70
2018-06-15T12:14:34.493Z,37.10
2018-06-15T12:17:02.950Z,37.10
2018-06-15T12:19:31.347Z,37.20
2018-06-15T12:21:59.728Z,36.90
2018-06-15T12:24:28.111Z,36.50
2018-06-15T12:26:56.508Z,36.70
2018-06-15T12:29:25.000Z,36.90
2018-06-15T12:31:53.460Z,35.40
2018-06-15T12:34:21.986Z,36.30
2018-06-15T12:36:50.464Z,36.70
2018-06-15T12:39:18.868Z,36.30
2018-06-15T12:41:47.340Z,36.60
2018-06-15T12:44:15.712Z,37.00
2018-06-15T12:46:44.577Z,37.20
2018-06-15T12:49:13.000Z,36.70
2018-06-15T12:51:41.368Z,36.90
2018-06-15T12:54:09.796Z,37.20
2018-06-15T12:56:38.168Z,36.10
2018-06-15T12:59:06.589Z,36.20
2018-06-15T13:01:34.960Z,36.20
2018-06-15T13:04:03.316Z,36.40
2018-06-15T13:06:31.842Z,36.00
2018-06-15T13:09:00.272Z,36.00
2018-06-15T13:11:28.632Z,35.80
2018-06-15T13:13:57.100Z,35.50
2018-06-15T13:16:25.560Z,34.90
2018-06-15T13:18:54.104Z,34.00
2018-06-15T13:21:22.516Z,34.00
2018-06-15T13:23:51.017Z,34.30
2018-06-15T13:26:19.428Z,34.40
2018-06-15T13:28:48.921Z,34.20
2018-06-15T13:31:17.532Z,34.10
2018-06-15T13:33:48.036Z,34.10
2018-06-15T13:36:16.589Z,34.30
2018-06-15T13:38:46.086Z,34.20
2018-06-15T13:41:14.512Z,34.60
2018-06-15T13:43:42.996Z,34.90
2018-06-15T13:46:11.397Z,34.60
2018-06-15T13:48:39.848Z,34.20
2018-06-15T13:51:08.291Z,35.20
2018-06-15T13:53:36.615Z,35.30
2018-06-15T13:56:05.415Z,35.30
2018-06-15T13:58:33.804Z,35.50
2018-06-15T14:01:02.376Z,35.70
2018-06-15T14:03:30.836Z,35.90
2018-06-15T14:05:59.362Z,35.30
2018-06-15T14:08:30.212Z,35.90
2018-06-15T14:10:58.612Z,36.30
2018-06-15T14:13:27.076Z,35.80
2018-06-15T14:15:56.584Z,35.80
2018-06-15T14:18:24.949Z,35.90
2018-06-15T14:20:53.465Z,35.50
2018-06-15T14:23:21.887Z,35.50
2018-06-15T14:25:50.289Z,35.30
2018-06-15T14:28:18.652Z,35.60
2018-06-15T14:30:47.074Z,35.80
2018-06-15T14:33:15.432Z,36.00
2018-06-15T14:35:43.841Z,36.10
2018-06-15T14:38:14.320Z,36.20
2018-06-15T14:40:42.708Z,36.30
2018-06-15T14:43:11.185Z,36.20
2018-06-15T14:45:39.610Z,35.70
2018-06-15T14:48:11.580Z,35.60
2018-06-15T14:50:39.984Z,35.40
2018-06-15T14:53:08.441Z,35.40
2018-06-15T14:55:37.096Z,35.20
2018-06-15T14:58:05.719Z,34.80
2018-06-15T15:00:34.296Z,34.90
2018-06-15T15:03:02.820Z,35.00
2018-06-15T15:05:31.265Z,35.00
2018-06-15T15:08:00.089Z,35.10
2018-06-15T15:10:29.488Z,35.20
2018-06-15T15:12:57.897Z,35.00
2018-06-15T15:15:26.896Z,34.70
2018-06-15T15:17:55.441Z,34.90
2018-06-15T15:20:23.984Z,35.10
2018-06-15T15:22:55.237Z,35.10
2018-06-15T15:25:23.768Z,35.10
2018-06-15T15:27:58.612Z,35.10
2018-06-15T15:30:27.018Z,34.90
2018-06-15T15:32:55.457Z,35.20
2018-06-15T15:35:24.016Z,34.50
2018-06-15T15:37:52.514Z,34.60
2018-06-15T15:40:21.008Z,34.10
2018-06-15T15:42:50.517Z,33.30
2018-06-15T15:45:19.129Z,34.10
2018-06-15T15:47:49.596Z,34.40
2018-06-15T15:50:17.968Z,34.40
2018-06-15T15:52:46.479Z,34.30
2018-06-15T15:55:14.972Z,34.40
2018-06-15T15:57:43.614Z,34.40
2018-06-15T16:00:12.042Z,34.30
2018-06-15T16:02:40.697Z,34.20
2018-06-15T16:05:09.147Z,34.20
2018-06-15T16:07:37.588Z,34.10
2018-06-15T16:12:33.964Z,34.10
2018-06-15T16:15:02.503Z,34.00
2018-06-15T16:17:30.875Z,33.80
2018-06-15T16:19:59.265Z,33.70
2018-06-15T16:22:27.717Z,33.50
2018-06-15T16:24:56.141Z,33.30
2018-06-15T16:27:24.515Z,33.10
2018-06-15T16:29:54.026Z,33.00
2018-06-15T16:32:22.572Z,32.90
2018-06-15T16:34:51.060Z,32.60
2018-06-15T16:37:19.496Z,32.50
2018-06-15T16:39:49.948Z,32.40
2018-06-15T16:42:18.332Z,32.30
2018-06-15T16:44:46.752Z,32.20
2018-06-15T16:47:15.181Z,32.10
2018-06-15T16:49:43.716Z,32.00
2018-06-15T16:52:12.116Z,32.00
2018-06-15T16:54:40.518Z,31.90
2018-06-15T16:57:11.100Z,31.80
2018-06-15T16:59:39.670Z,31.70
2018-06-15T17:02:08.135Z,31.60
2018-06-15T17:04:36.721Z,31.50
2018-06-15T17:07:05.141Z,31.50
2018-06-15T17:09:33.560Z,31.30
2018-06-15T17:12:02.192Z,31.30
2018-06-15T17:14:30.740Z,31.20
2018-06-15T17:16:59.224Z,31.10
2018-06-15T17:19:32.567Z,31.10
2018-06-15T17:22:00.955Z,30.90
2018-06-15T17:24:29.348Z,30.90
2018-06-15T17:26:57.812Z,30.80
2018-06-15T17:29:26.856Z,30.70
2018-06-15T17:31:58.701Z,30.60
2018-06-15T17:34:27.156Z,30.60
2018-06-15T17:36:55.689Z,30.40
2018-06-15T17:39:24.134Z,30.30
2018-06-15T17:41:52.716Z,30.20
2018-06-15T17:44:21.216Z,30.10
2018-06-15T17:46:49.726Z,30.00
2018-06-15T17:49:18.172Z,29.90
2018-06-15T17:51:47.772Z,29.90
2018-06-15T17:54:16.252Z,29.70
2018-06-15T17:56:44.816Z,29.70
2018-06-15T17:59:15.348Z,29.60
2018-06-15T18:04:12.077Z,29.40
2018-06-15T18:06:43.804Z,29.40
2018-06-15T18:09:12.247Z,29.30
2018-06-15T18:11:40.700Z,29.20
2018-06-15T18:14:10.033Z,29.10
2018-06-15T18:16:42.635Z,29.10
2018-06-15T18:19:12.144Z,29.00
2018-06-15T18:21:40.562Z,28.90
2018-06-15T18:24:13.124Z,28.90
2018-06-15T18:26:41.676Z,28.70
2018-06-15T18:29:13.356Z,28.60
2018-06-15T18:31:41.809Z,28.50
2018-06-15T18:34:10.295Z,28.40
2018-06-15T18:36:38.699Z,28.30
2018-06-15T18:41:47.559Z,28.10
2018-06-15T18:44:18.654Z,28.00
2018-06-15T18:46:47.473Z,28.00
2018-06-15T18:49:20.445Z,27.90
2018-06-15T18:51:49.344Z,27.80
2018-06-15T18:54:19.501Z,27.70
2018-06-15T18:56:48.854Z,27.60
2018-06-15T18:59:18.013Z,27.40
2018-06-15T19:01:49.361Z,27.30
2018-06-15T19:04:18.468Z,27.20
2018-06-15T19:06:47.730Z,27.10
2018-06-15T19:09:19.052Z,27.00
2018-06-15T19:11:50.224Z,26.90
2018-06-15T19:14:19.434Z,26.80
2018-06-15T19:16:53.509Z,26.70
2018-06-15T19:19:22.507Z,26.60
2018-06-15T19:21:53.668Z,26.50
2018-06-15T19:26:50.935Z,26.30
2018-06-15T19:29:19.734Z,26.20
2018-06-15T19:31:49.160Z,26.10
2018-06-15T19:34:18.580Z,25.90
2018-06-15T19:36:47.492Z,25.80
2018-06-15T19:39:16.775Z,25.70
2018-06-15T19:41:45.899Z,25.60
2018-06-15T19:44:14.840Z,25.50
2018-06-15T19:46:44.211Z,25.40
2018-06-15T19:49:13.127Z,25.30
2018-06-15T19:51:42.060Z,25.20
2018-06-15T19:54:16.311Z,25.10
2018-06-15T19:56:45.277Z,25.10
2018-06-15T19:59:18.309Z,24.90
2018-06-15T20:01:47.355Z,24.80
2018-06-15T20:04:16.415Z,24.70
2018-06-15T20:06:45.653Z,24.60
2018-06-15T20:09:14.967Z,24.50
2018-06-15T20:11:43.899Z,24.40
2018-06-15T20:14:18.739Z,24.30
2018-06-15T20:16:47.472Z,24.10
2018-06-15T20:19:16.467Z,24.00
2018-06-15T20:21:49.293Z,24.00
2018-06-15T20:24:18.156Z,23.80
2018-06-15T20:26:47.237Z,23.70
2018-06-15T20:29:16.256Z,23.60
2018-06-15T20:31:45.281Z,23.50
2018-06-15T20:34:14.298Z,23.40
2018-06-15T20:36:43.508Z,23.40
2018-06-15T20:39:12.594Z,23.30
2018-06-15T20:41:41.460Z,23.20
2018-06-15T20:44:10.311Z,23.10
2018-06-15T20:46:39.138Z,23.10
2018-06-15T20:49:08.234Z,23.00
2018-06-15T20:51:37.160Z,22.90
2018-06-15T20:54:06.186Z,22.80
2018-06-15T20:56:35.410Z,22.80
2018-06-15T20:59:04.455Z,22.70
2018-06-15T21:01:34.492Z,22.60
2018-06-15T21:04:03.792Z,22.50
2018-06-15T21:06:32.866Z,22.40
2018-06-15T21:09:01.705Z,22.40
2018-06-15T21:11:31.100Z,22.30
2018-06-15T21:14:06.363Z,22.20
2018-06-15T21:16:35.446Z,22.20
2018-06-15T21:19:04.472Z,22.00
2018-06-15T21:21:34.735Z,22.00
2018-06-15T21:24:03.766Z,21.90
2018-06-15T21:26:32.863Z,21.80
2018-06-15T21:29:02.354Z,21.70
2018-06-15T21:31:31.497Z,21.60
2018-06-15T21:34:00.393Z,21.60
2018-06-15T21:36:29.434Z,21.50
2018-06-15T21:38:58.753Z,21.40
2018-06-15T21:41:28.039Z,21.30
2018-06-15T21:43:56.853Z,21.20
2018-06-15T21:46:25.823Z,21.20
2018-06-15T21:48:55.050Z,21.10
2018-06-15T21:51:24.114Z,21.00
2018-06-15T21:53:53.078Z,21.00
2018-06-15T21:56:22.233Z,20.90
2018-06-15T21:58:52.173Z,20.80
2018-06-15T22:01:24.165Z,20.80
2018-06-15T22:06:21.508Z,20.60
2018-06-15T22:08:50.746Z,20.60
2018-06-15T22:11:19.730Z,20.50
2018-06-15T22:13:50.876Z,20.40
2018-06-15T22:16:20.052Z,20.30
2018-06-15T22:18:49.039Z,20.20
2018-06-15T22:21:18.041Z,20.10
2018-06-15T22:24:06.722Z,20.10
2018-06-15T22:26:37.441Z,20.00
2018-06-15T22:29:06.588Z,19.90
2018-06-15T22:31:35.382Z,19.90
2018-06-15T22:34:04.222Z,19.80
2018-06-15T22:36:33.244Z,19.70
2018-06-15T22:39:02.175Z,19.70
2018-06-15T22:41:31.284Z,19.60
2018-06-15T22:44:00.435Z,19.50
2018-06-15T22:46:29.734Z,19.50
2018-06-15T22:48:58.830Z,19.40
2018-06-15T22:51:27.868Z,19.40
2018-06-15T22:53:56.943Z,19.30
2018-06-15T22:56:26.020Z,19.30
2018-06-15T22:58:54.851Z,19.20
2018-06-15T23:01:24.070Z,19.20
2018-06-15T23:08:49.288Z,19.00
2018-06-15T23:11:18.264Z,19.00
2018-06-15T23:13:47.028Z,18.90
2018-06-15T23:16:15.947Z,18.90
2018-06-15T23:18:45.046Z,18.80
2018-06-15T23:21:13.927Z,18.80
2018-06-15T23:23:43.000Z,18.70
2018-06-15T23:26:12.217Z,18.70
2018-06-15T23:28:41.391Z,18.60
2018-06-15T23:31:10.220Z,18.60
2018-06-15T23:33:39.081Z,18.50
2018-06-15T23:36:08.211Z,18.50
2018-06-15T23:38:37.174Z,18.40
2018-06-15T23:41:06.495Z,18.40
2018-06-15T23:43:35.436Z,18.40
2018-06-15T23:46:04.380Z,18.30
2018-06-15T23:48:33.354Z,18.30
2018-06-15T23:51:04.902Z,18.30
2018-06-15T23:53:33.860Z,18.20
2018-06-15T23:56:02.720Z,18.20
2018-06-15T23:58:32.082Z,18.20
